createdAt,value
2018-10-02T00:01:03.734Z,101605.38
2018-10-02T00:02:09.273Z,101610.91
2018-10-02T00:03:14.786Z,101617.70
2018-10-02T00:04:20.307Z,101614.32
2018-10-02T00:05:25.888Z,101611.80
2018-10-02T00:06:31.439Z,101612.66
2018-10-02T00:07:37.085Z,101610.97
2018-10-02T00:08:42.625Z,101610.13
2018-10-02T00:09:48.085Z,101604.62
2018-10-02T00:10:58.519Z,101599.10
2018-10-02T00:12:09.274Z,101593.16
2018-10-02T00:13:19.995Z,101591.47
2018-10-02T00:14:29.253Z,101591.48
2018-10-02T00:15:34.736Z,101589.38
2018-10-02T00:16:40.298Z,101585.13
2018-10-02T00:17:45.776Z,101584.70
2018-10-02T00:18:51.328Z,101588.53
2018-10-02T00:19:57.183Z,101588.12
2018-10-02T00:21:02.634Z,101595.78
2018-10-02T00:22:08.408Z,101591.09
2018-10-02T00:23:13.817Z,101596.20
2018-10-02T00:24:19.355Z,101604.28
2018-10-02T00:25:24.833Z,101601.70
2018-10-02T00:26:30.382Z,101598.73
2018-10-02T00:27:35.792Z,101602.14
2018-10-02T00:28:41.252Z,101599.19
2018-10-02T00:29:46.760Z,101597.05
2018-10-02T00:30:52.326Z,101597.92
2018-10-02T00:31:57.989Z,101593.64
2018-10-02T00:33:03.425Z,101597.90
2018-10-02T00:34:09.394Z,101598.34
2018-10-02T00:35:14.891Z,101598.75
2018-10-02T00:36:20.362Z,101595.34
2018-10-02T00:37:25.828Z,101597.01
2018-10-02T00:38:31.317Z,101594.05
2018-10-02T00:39:36.825Z,101594.47
2018-10-02T00:40:42.257Z,101594.90
2018-10-02T00:41:47.736Z,101595.34
2018-10-02T00:42:53.271Z,101589.80
2018-10-02T00:43:58.718Z,101587.23
2018-10-02T00:45:04.343Z,101582.55
2018-10-02T00:46:09.813Z,101587.22
2018-10-02T00:47:15.241Z,101579.17
2018-10-02T00:48:20.775Z,101590.60
2018-10-02T00:49:26.284Z,101592.30
2018-10-02T00:50:31.827Z,101590.60
2018-10-02T00:51:37.321Z,101590.17
2018-10-02T00:52:42.739Z,101587.62
2018-10-02T00:53:48.178Z,101587.61
2018-10-02T00:54:53.713Z,101581.27
2018-10-02T00:55:59.305Z,101574.47
2018-10-02T00:57:04.857Z,101567.25
2018-10-02T00:58:10.355Z,101570.66
2018-10-02T00:59:15.765Z,101572.36
2018-10-02T01:00:21.500Z,101566.41
2018-10-02T01:01:27.130Z,101557.92
2018-10-02T01:02:32.641Z,101557.08
2018-10-02T01:03:38.184Z,101558.81
2018-10-02T01:04:43.813Z,101551.59
2018-10-02T01:05:49.284Z,101557.52
2018-10-02T01:06:54.796Z,101558.36
2018-10-02T01:08:00.314Z,101556.67
2018-10-02T01:09:09.618Z,101556.24
2018-10-02T01:10:15.157Z,101558.81
2018-10-02T01:11:20.857Z,101550.75
2018-10-02T01:12:26.411Z,101557.12
2018-10-02T01:13:32.029Z,101552.47
2018-10-02T01:14:37.506Z,101550.34
2018-10-02T01:15:43.065Z,101549.05
2018-10-02T01:16:48.717Z,101544.84
2018-10-02T01:17:54.181Z,101539.32
2018-10-02T01:18:59.721Z,101538.45
2018-10-02T01:20:05.495Z,101536.75
2018-10-02T01:21:10.924Z,101539.75
2018-10-02T01:22:16.389Z,101532.53
2018-10-02T01:23:21.875Z,101531.25
2018-10-02T01:24:27.397Z,101533.78
2018-10-02T01:25:33.007Z,101532.52
2018-10-02T01:26:38.637Z,101534.23
2018-10-02T01:27:44.237Z,101537.18
2018-10-02T01:28:49.667Z,101533.81
2018-10-02T01:29:55.136Z,101535.92
2018-10-02T01:31:00.650Z,101532.09
2018-10-02T01:32:06.319Z,101536.34
2018-10-02T01:33:11.737Z,101538.48
2018-10-02T01:34:17.180Z,101536.79
2018-10-02T01:35:22.722Z,101535.08
2018-10-02T01:36:28.236Z,101531.26
2018-10-02T01:37:33.860Z,101532.09
2018-10-02T01:38:39.559Z,101530.81
2018-10-02T01:39:45.053Z,101524.03
2018-10-02T01:40:50.717Z,101519.78
2018-10-02T01:41:56.177Z,101519.77
2018-10-02T01:43:01.613Z,101516.80
2018-10-02T01:44:07.108Z,101508.73
2018-10-02T01:45:12.532Z,101518.48
2018-10-02T01:46:18.002Z,101515.11
2018-10-02T01:47:23.530Z,101520.61
2018-10-02T01:48:29.052Z,101518.94
2018-10-02T01:49:34.542Z,101514.69
2018-10-02T01:50:40.057Z,101511.27
2018-10-02T01:51:45.613Z,101514.68
2018-10-02T01:52:51.449Z,101512.13
2018-10-02T01:53:56.977Z,101512.14
2018-10-02T01:55:02.541Z,101513.82
2018-10-02T01:56:08.357Z,101501.91
2018-10-02T01:57:13.959Z,101495.56
2018-10-02T01:58:19.456Z,101504.91
2018-10-02T01:59:24.977Z,101495.53
2018-10-02T02:00:30.430Z,101490.86
2018-10-02T02:01:35.900Z,101493.84
2018-10-02T02:02:41.377Z,101487.91
2018-10-02T02:03:46.848Z,101481.11
2018-10-02T02:04:52.276Z,101481.11
2018-10-02T02:05:57.862Z,101486.62
2018-10-02T02:07:03.414Z,101478.13
2018-10-02T02:08:09.033Z,101481.08
2018-10-02T02:09:14.526Z,101483.63
2018-10-02T02:10:19.997Z,101479.80
2018-10-02T02:11:25.548Z,101483.20
2018-10-02T02:12:31.001Z,101475.15
2018-10-02T02:13:36.429Z,101478.55
2018-10-02T02:14:41.964Z,101476.83
2018-10-02T02:15:47.388Z,101474.71
2018-10-02T02:16:52.900Z,101469.17
2018-10-02T02:17:58.326Z,101468.33
2018-10-02T02:19:03.764Z,101467.91
2018-10-02T02:20:09.281Z,101466.63
2018-10-02T02:21:14.849Z,101464.08
2018-10-02T02:22:20.323Z,101460.25
2018-10-02T02:23:25.753Z,101464.51
2018-10-02T02:24:31.253Z,101459.82
2018-10-02T02:25:36.794Z,101460.23
2018-10-02T02:26:42.284Z,101455.13
2018-10-02T02:27:47.761Z,101457.24
2018-10-02T02:28:53.197Z,101451.73
2018-10-02T02:29:58.681Z,101451.70
2018-10-02T02:31:04.189Z,101446.20
2018-10-02T02:32:09.690Z,101441.09
2018-10-02T02:33:15.311Z,101437.27
2018-10-02T02:34:20.769Z,101438.95
2018-10-02T02:35:26.213Z,101431.30
2018-10-02T02:36:31.730Z,101432.14
2018-10-02T02:37:37.268Z,101434.69
2018-10-02T02:38:42.745Z,101433.85
2018-10-02T02:39:48.245Z,101431.30
2018-10-02T02:40:53.741Z,101430.46
2018-10-02T02:41:59.185Z,101427.07
2018-10-02T02:43:04.793Z,101427.03
2018-10-02T02:44:10.198Z,101427.07
2018-10-02T02:45:15.701Z,101425.36
2018-10-02T02:46:21.293Z,101431.70
2018-10-02T02:48:34.801Z,101422.81
2018-10-02T02:49:45.304Z,101429.16
2018-10-02T02:50:56.712Z,101422.37
2018-10-02T02:52:02.277Z,101422.81
2018-10-02T02:53:10.841Z,101411.73
2018-10-02T02:54:16.300Z,101410.05
2018-10-02T02:55:21.828Z,101408.34
2018-10-02T02:56:28.039Z,101409.17
2018-10-02T02:57:33.505Z,101415.95
2018-10-02T02:58:39.049Z,101418.06
2018-10-02T02:59:44.624Z,101414.23
2018-10-02T03:00:50.222Z,101411.69
2018-10-02T03:01:55.654Z,101406.98
2018-10-02T03:03:01.212Z,101405.73
2018-10-02T03:04:06.721Z,101400.59
2018-10-02T03:05:12.195Z,101394.66
2018-10-02T03:06:17.744Z,101396.33
2018-10-02T03:07:23.269Z,101392.09
2018-10-02T03:08:28.740Z,101385.68
2018-10-02T03:09:34.249Z,101388.66
2018-10-02T03:10:39.681Z,101390.34
2018-10-02T03:11:45.244Z,101389.06
2018-10-02T03:12:50.790Z,101386.11
2018-10-02T03:13:56.217Z,101389.50
2018-10-02T03:15:01.723Z,101388.23
2018-10-02T03:16:07.213Z,101389.06
2018-10-02T03:17:12.685Z,101387.79
2018-10-02T03:18:18.326Z,101382.67
2018-10-02T03:19:23.790Z,101385.19
2018-10-02T03:20:29.397Z,101377.97
2018-10-02T03:21:35.051Z,101381.39
2018-10-02T03:22:40.440Z,101382.67
2018-10-02T03:23:46.113Z,101378.41
2018-10-02T03:24:51.610Z,101375.02
2018-10-02T03:25:57.012Z,101370.73
2018-10-02T03:27:02.529Z,101366.87
2018-10-02T03:28:08.030Z,101361.77
2018-10-02T03:29:13.567Z,101361.36
2018-10-02T03:30:19.684Z,101362.20
2018-10-02T03:31:25.112Z,101360.91
2018-10-02T03:32:30.556Z,101357.48
2018-10-02T03:33:36.037Z,101352.37
2018-10-02T03:34:41.791Z,101345.16
2018-10-02T03:35:47.482Z,101343.44
2018-10-02T03:36:53.036Z,101340.48
2018-10-02T03:37:58.627Z,101333.22
2018-10-02T03:39:04.481Z,101326.39
2018-10-02T03:40:10.015Z,101320.01
2018-10-02T03:41:15.562Z,101318.28
2018-10-02T03:42:21.111Z,101322.99
2018-10-02T03:43:26.661Z,101316.60
2018-10-02T03:44:32.126Z,101314.50
2018-10-02T03:45:37.702Z,101315.77
2018-10-02T03:46:43.198Z,101315.72
2018-10-02T03:47:48.722Z,101310.67
2018-10-02T03:48:54.303Z,101310.67
2018-10-02T03:49:59.793Z,101307.22
2018-10-02T03:51:05.293Z,101311.05
2018-10-02T03:52:10.801Z,101309.39
2018-10-02T03:53:16.372Z,101305.13
2018-10-02T03:54:21.802Z,101310.63
2018-10-02T03:55:27.309Z,101308.94
2018-10-02T03:56:32.866Z,101311.50
2018-10-02T03:57:38.610Z,101307.67
2018-10-02T03:58:44.043Z,101311.05
2018-10-02T03:59:49.609Z,101308.50
2018-10-02T04:00:55.124Z,101303.38
2018-10-02T04:02:00.553Z,101306.77
2018-10-02T04:03:06.055Z,101300.37
2018-10-02T04:04:11.523Z,101302.49
2018-10-02T04:05:17.030Z,101299.09
2018-10-02T04:06:22.587Z,101296.48
2018-10-02T04:07:28.212Z,101295.20
2018-10-02T04:08:33.701Z,101296.92
2018-10-02T04:09:39.118Z,101302.03
2018-10-02T04:10:44.675Z,101294.77
2018-10-02T04:11:50.154Z,101302.84
2018-10-02T04:12:55.602Z,101294.31
2018-10-02T04:14:01.064Z,101296.47
2018-10-02T04:15:06.832Z,101290.09
2018-10-02T04:16:12.560Z,101297.31
2018-10-02T04:17:18.063Z,101293.05
2018-10-02T04:18:23.494Z,101290.91
2018-10-02T04:19:29.062Z,101294.73
2018-10-02T04:20:34.572Z,101298.52
2018-10-02T04:21:39.972Z,101298.13
2018-10-02T04:22:45.430Z,101297.23
2018-10-02T04:23:51.013Z,101294.67
2018-10-02T04:24:56.592Z,101298.06
2018-10-02T04:26:02.068Z,101286.56
2018-10-02T04:27:07.619Z,101290.39
2018-10-02T04:28:13.082Z,101287.44
2018-10-02T04:29:18.536Z,101281.88
2018-10-02T04:30:24.123Z,101277.62
2018-10-02T04:31:29.572Z,101282.36
2018-10-02T04:32:34.989Z,101280.23
2018-10-02T04:33:40.549Z,101284.47
2018-10-02T04:34:45.941Z,101285.35
2018-10-02T04:35:51.575Z,101287.47
2018-10-02T04:36:57.020Z,101295.56
2018-10-02T04:38:02.510Z,101284.02
2018-10-02T04:39:09.584Z,101293.41
2018-10-02T04:40:15.211Z,101288.80
2018-10-02T04:41:20.764Z,101284.54
2018-10-02T04:42:26.345Z,101288.80
2018-10-02T04:43:31.806Z,101281.98
2018-10-02T04:44:37.346Z,101283.31
2018-10-02T04:45:42.945Z,101284.15
2018-10-02T04:46:48.493Z,101278.60
2018-10-02T04:47:54.964Z,101276.89
2018-10-02T04:49:00.433Z,101267.09
2018-10-02T04:50:06.071Z,101270.09
2018-10-02T04:51:11.544Z,101273.49
2018-10-02T04:52:17.077Z,101273.06
2018-10-02T04:53:22.526Z,101270.55
2018-10-02T04:54:28.083Z,101268.39
2018-10-02T04:55:33.662Z,101265.01
2018-10-02T04:56:39.339Z,101268.44
2018-10-02T04:57:44.789Z,101266.36
2018-10-02T04:58:50.304Z,101264.65
2018-10-02T04:59:55.869Z,101261.27
2018-10-02T05:01:01.773Z,101254.94
2018-10-02T05:02:07.793Z,101254.05
2018-10-02T05:03:13.456Z,101254.44
2018-10-02T05:04:18.865Z,101253.98
2018-10-02T05:05:24.321Z,101254.86
2018-10-02T05:06:30.042Z,101248.48
2018-10-02T05:07:35.691Z,101249.41
2018-10-02T05:08:41.325Z,101247.67
2018-10-02T05:09:47.033Z,101239.57
2018-10-02T05:10:52.465Z,101233.25
2018-10-02T05:11:57.926Z,101230.27
2018-10-02T05:13:03.467Z,101225.98
2018-10-02T05:14:09.080Z,101225.97
2018-10-02T05:15:14.667Z,101225.58
2018-10-02T05:16:20.171Z,101220.88
2018-10-02T05:17:25.619Z,101219.59
2018-10-02T05:18:31.248Z,101215.35
2018-10-02T05:19:36.814Z,101211.53
2018-10-02T05:20:42.458Z,101204.34
2018-10-02T05:21:47.995Z,101206.43
2018-10-02T05:22:53.492Z,101200.06
2018-10-02T05:23:59.106Z,101204.33
2018-10-02T05:25:04.614Z,101196.70
2018-10-02T05:26:10.189Z,101197.98
2018-10-02T05:27:15.959Z,101191.19
2018-10-02T05:28:21.410Z,101194.22
2018-10-02T05:29:26.932Z,101193.37
2018-10-02T05:30:32.570Z,101191.64
2018-10-02T05:31:38.110Z,101193.36
2018-10-02T05:32:43.601Z,101199.70
2018-10-02T05:33:49.090Z,101192.92
2018-10-02T05:34:54.707Z,101195.87
2018-10-02T05:36:00.161Z,101196.70
2018-10-02T05:37:05.773Z,101197.58
2018-10-02T05:38:11.494Z,101197.11
2018-10-02T05:39:16.977Z,101196.69
2018-10-02T05:40:22.549Z,101201.77
2018-10-02T05:41:28.021Z,101199.26
2018-10-02T05:42:33.631Z,101199.24
2018-10-02T05:43:39.455Z,101189.09
2018-10-02T05:44:44.901Z,101192.04
2018-10-02T05:45:50.482Z,101185.21
2018-10-02T05:46:56.038Z,101187.30
2018-10-02T05:48:01.539Z,101180.92
2018-10-02T05:49:07.132Z,101172.04
2018-10-02T05:50:12.849Z,101167.77
2018-10-02T05:51:18.474Z,101171.61
2018-10-02T05:52:23.933Z,101173.73
2018-10-02T05:53:29.399Z,101173.31
2018-10-02T05:54:34.881Z,101170.77
2018-10-02T05:55:40.316Z,101172.42
2018-10-02T05:56:45.840Z,101160.51
2018-10-02T05:57:51.446Z,101161.45
2018-10-02T05:58:56.888Z,101164.00
2018-10-02T06:00:02.489Z,101161.84
2018-10-02T06:01:08.486Z,101153.80
2018-10-02T06:02:15.477Z,101149.98
2018-10-02T06:03:20.978Z,101151.25
2018-10-02T06:04:26.596Z,101144.45
2018-10-02T06:05:32.156Z,101136.78
2018-10-02T06:06:37.750Z,101139.77
2018-10-02T06:07:43.271Z,101145.77
2018-10-02T06:08:48.788Z,101139.78
2018-10-02T06:09:54.261Z,101132.67
2018-10-02T06:10:59.789Z,101135.20
2018-10-02T06:12:05.253Z,101125.82
2018-10-02T06:13:10.735Z,101115.98
2018-10-02T06:14:16.220Z,101120.66
2018-10-02T06:15:21.640Z,101118.09
2018-10-02T06:16:27.086Z,101117.71
2018-10-02T06:17:32.573Z,101122.37
2018-10-02T06:18:38.104Z,101117.26
2018-10-02T06:19:43.742Z,101114.71
2018-10-02T06:20:49.200Z,101119.39
2018-10-02T06:21:54.786Z,101122.38
2018-10-02T06:23:00.308Z,101121.53
2018-10-02T06:24:05.910Z,101118.47
2018-10-02T06:25:11.397Z,101112.50
2018-10-02T06:26:16.864Z,101109.89
2018-10-02T06:27:22.331Z,101103.52
2018-10-02T06:28:27.821Z,101103.95
2018-10-02T06:29:33.356Z,101104.78
2018-10-02T06:30:38.914Z,101103.52
2018-10-02T06:31:44.569Z,101096.72
2018-10-02T06:32:50.291Z,101097.55
2018-10-02T06:33:55.629Z,101101.79
2018-10-02T06:35:01.309Z,101108.17
2018-10-02T06:36:07.058Z,101104.76
2018-10-02T06:37:12.545Z,101106.12
2018-10-02T06:38:18.064Z,101108.63
2018-10-02T06:39:23.456Z,101110.72
2018-10-02T06:40:29.029Z,101104.73
2018-10-02T06:41:34.653Z,101109.39
2018-10-02T06:42:40.201Z,101109.84
2018-10-02T06:43:45.922Z,101106.38
2018-10-02T06:44:51.516Z,101099.52
2018-10-02T06:45:57.092Z,101102.09
2018-10-02T06:47:02.744Z,101109.31
2018-10-02T06:48:08.325Z,101109.31
2018-10-02T06:49:13.976Z,101097.80
2018-10-02T06:50:19.455Z,101113.52
2018-10-02T06:51:25.202Z,101108.88
2018-10-02T06:52:30.938Z,101102.02
2018-10-02T06:53:36.365Z,101099.45
2018-10-02T06:54:41.962Z,101101.17
2018-10-02T06:55:47.457Z,101099.48
2018-10-02T06:56:53.049Z,101090.14
2018-10-02T06:57:58.482Z,101090.54
2018-10-02T06:59:04.080Z,101092.67
2018-10-02T07:00:09.655Z,101093.88
2018-10-02T07:01:15.285Z,101078.55
2018-10-02T07:02:20.854Z,101076.80
2018-10-02T07:03:27.168Z,101079.74
2018-10-02T07:04:39.440Z,101082.75
2018-10-02T07:05:44.910Z,101082.66
2018-10-02T07:06:50.478Z,101072.48
2018-10-02T07:07:55.893Z,101084.74
2018-10-02T07:09:01.529Z,101085.19
2018-10-02T07:10:08.089Z,101080.55
2018-10-02T07:11:13.530Z,101081.80
2018-10-02T07:12:19.059Z,101084.37
2018-10-02T07:13:24.534Z,101085.25
2018-10-02T07:14:30.152Z,101085.64
2018-10-02T07:15:35.753Z,101080.09
2018-10-02T07:16:41.936Z,101078.89
2018-10-02T07:17:47.412Z,101074.69
2018-10-02T07:18:53.410Z,101073.34
2018-10-02T07:19:58.834Z,101068.61
2018-10-02T07:21:04.279Z,101072.50
2018-10-02T07:22:09.887Z,101056.28
2018-10-02T07:23:15.520Z,101054.19
2018-10-02T07:24:21.032Z,101055.48
2018-10-02T07:25:26.644Z,101048.59
2018-10-02T07:26:32.242Z,101044.73
2018-10-02T07:27:37.865Z,101043.84
2018-10-02T07:28:43.269Z,101044.30
2018-10-02T07:29:49.128Z,101032.83
2018-10-02T07:30:54.848Z,101031.91
2018-10-02T07:32:00.472Z,101029.34
2018-10-02T07:33:06.125Z,101019.09
2018-10-02T07:34:11.585Z,101025.50
2018-10-02T07:35:17.100Z,101033.65
2018-10-02T07:36:23.090Z,101034.52
2018-10-02T07:37:28.589Z,101042.12
2018-10-02T07:38:34.479Z,101045.89
2018-10-02T07:39:40.186Z,101045.02
2018-10-02T07:40:45.648Z,101040.01
2018-10-02T07:41:51.513Z,101039.17
2018-10-02T07:42:57.137Z,101039.52
2018-10-02T07:44:02.561Z,101042.44
2018-10-02T07:45:08.130Z,101034.79
2018-10-02T07:46:13.504Z,101039.51
2018-10-02T07:47:18.990Z,101043.81
2018-10-02T07:48:24.617Z,101039.98
2018-10-02T07:49:30.279Z,101042.11
2018-10-02T07:50:35.778Z,101039.51
2018-10-02T07:51:41.539Z,101048.84
2018-10-02T07:52:46.985Z,101041.63
2018-10-02T07:53:52.738Z,101043.72
2018-10-02T07:54:58.352Z,101034.77
2018-10-02T07:56:03.865Z,101030.44
2018-10-02T07:57:09.556Z,101018.95
2018-10-02T07:58:15.201Z,101028.70
2018-10-02T07:59:20.745Z,101030.90
2018-10-02T08:00:26.243Z,101030.95
2018-10-02T08:01:31.804Z,101025.36
2018-10-02T08:02:37.305Z,101018.14
2018-10-02T08:03:42.788Z,101012.95
2018-10-02T08:04:48.346Z,101012.06
2018-10-02T08:05:53.831Z,101014.14
2018-10-02T08:06:59.505Z,101013.23
2018-10-02T08:08:05.035Z,101008.91
2018-10-02T08:09:12.184Z,101008.06
2018-10-02T08:10:17.796Z,101001.20
2018-10-02T08:11:23.274Z,101005.42
2018-10-02T08:12:28.856Z,101002.86
2018-10-02T08:13:34.287Z,101006.23
2018-10-02T08:14:40.099Z,100995.55
2018-10-02T08:15:45.781Z,100990.92
2018-10-02T08:16:51.241Z,101003.20
2018-10-02T08:17:56.799Z,101007.86
2018-10-02T08:19:02.294Z,101015.17
2018-10-02T08:20:08.092Z,101004.11
2018-10-02T08:21:13.660Z,101000.66
2018-10-02T08:22:19.390Z,101001.91
2018-10-02T08:23:25.121Z,100983.52
2018-10-02T08:24:30.715Z,100980.44
2018-10-02T08:25:36.257Z,100985.63
2018-10-02T08:26:42.018Z,100993.80
2018-10-02T08:27:47.465Z,100999.80
2018-10-02T08:28:53.141Z,101006.20
2018-10-02T08:30:01.780Z,101008.30
2018-10-02T08:31:07.081Z,100996.34
2018-10-02T08:32:12.536Z,100992.52
2018-10-02T08:33:18.264Z,101005.30
2018-10-02T08:34:23.734Z,101004.00
2018-10-02T08:35:29.233Z,100993.78
2018-10-02T08:36:34.835Z,100994.19
2018-10-02T08:37:40.352Z,100982.15
2018-10-02T08:38:45.895Z,100978.73
2018-10-02T08:39:51.352Z,100980.48
2018-10-02T08:40:56.983Z,100980.50
2018-10-02T08:42:02.510Z,100983.05
2018-10-02T08:43:08.854Z,100982.55
2018-10-02T08:44:14.468Z,100976.95
2018-10-02T08:45:19.932Z,100975.22
2018-10-02T08:46:25.550Z,100980.31
2018-10-02T08:47:31.100Z,100981.48
2018-10-02T08:48:36.664Z,100982.23
2018-10-02T08:49:42.142Z,100982.63
2018-10-02T08:50:47.665Z,100983.40
2018-10-02T08:51:53.299Z,100977.47
2018-10-02T08:52:58.790Z,100977.89
2018-10-02T08:54:04.520Z,100971.52
2018-10-02T08:55:09.895Z,100961.27
2018-10-02T08:56:15.470Z,100961.61
2018-10-02T08:57:21.000Z,100964.12
2018-10-02T08:58:26.715Z,100961.59
2018-10-02T08:59:32.177Z,100960.27
2018-10-02T09:00:37.754Z,100957.70
2018-10-02T09:01:43.157Z,100962.73
2018-10-02T09:02:48.859Z,100960.05
2018-10-02T09:03:54.457Z,100964.69
2018-10-02T09:04:59.888Z,100962.53
2018-10-02T09:06:05.360Z,100962.02
2018-10-02T09:07:11.102Z,100962.34
2018-10-02T09:08:16.573Z,100965.44
2018-10-02T09:09:22.090Z,100965.36
2018-10-02T09:10:27.564Z,100962.75
2018-10-02T09:11:33.073Z,100954.73
2018-10-02T09:12:38.618Z,100957.62
2018-10-02T09:13:44.197Z,100963.73
2018-10-02T09:14:49.833Z,100964.01
2018-10-02T09:15:55.532Z,100960.93
2018-10-02T09:17:01.018Z,100964.33
2018-10-02T09:18:06.654Z,100968.14
2018-10-02T09:19:12.337Z,100971.51
2018-10-02T09:20:17.907Z,100968.07
2018-10-02T09:21:23.495Z,100969.67
2018-10-02T09:22:29.049Z,100966.61
2018-10-02T09:23:35.209Z,100968.70
2018-10-02T09:24:40.790Z,100958.03
2018-10-02T09:25:46.336Z,100952.89
2018-10-02T09:26:52.006Z,100952.91
2018-10-02T09:27:57.675Z,100953.27
2018-10-02T09:29:03.176Z,100952.23
2018-10-02T09:30:14.069Z,100950.07
2018-10-02T09:31:24.649Z,100950.55
2018-10-02T09:32:35.269Z,100942.27
2018-10-02T09:33:45.965Z,100946.98
2018-10-02T09:34:56.856Z,100945.26
2018-10-02T09:36:07.685Z,100950.66
2018-10-02T09:37:18.369Z,100951.89
2018-10-02T09:38:28.989Z,100949.61
2018-10-02T09:39:39.793Z,100946.13
2018-10-02T09:40:50.367Z,100936.95
2018-10-02T09:42:01.205Z,100937.23
2018-10-02T09:43:12.446Z,100934.28
2018-10-02T09:44:18.008Z,100941.34
2018-10-02T09:45:23.616Z,100938.75
2018-10-02T09:46:29.034Z,100944.20
2018-10-02T09:47:34.555Z,100949.66
2018-10-02T09:48:40.095Z,100950.83
2018-10-02T09:49:45.580Z,100952.88
2018-10-02T09:50:51.086Z,100952.97
2018-10-02T09:51:56.545Z,100942.42
2018-10-02T09:53:02.018Z,100950.02
2018-10-02T09:54:07.725Z,100946.56
2018-10-02T09:55:13.345Z,100949.03
2018-10-02T09:56:18.888Z,100945.48
2018-10-02T09:57:24.597Z,100941.93
2018-10-02T09:58:30.096Z,100946.52
2018-10-02T09:59:35.605Z,100957.84
2018-10-02T10:00:46.269Z,100944.47
2018-10-02T10:01:57.061Z,100944.86
2018-10-02T10:03:02.648Z,100948.16
2018-10-02T10:04:08.219Z,100948.64
2018-10-02T10:05:13.644Z,100950.44
2018-10-02T10:06:19.085Z,100952.45
2018-10-02T10:07:24.569Z,100956.59
2018-10-02T10:08:30.107Z,100949.83
2018-10-02T10:09:35.600Z,100951.02
2018-10-02T10:10:41.125Z,100948.34
2018-10-02T10:11:46.650Z,100941.45
2018-10-02T10:12:52.144Z,100945.75
2018-10-02T10:13:57.930Z,100943.78
2018-10-02T10:15:03.531Z,100947.98
2018-10-02T10:16:09.149Z,100938.14
2018-10-02T10:17:14.776Z,100938.80
2018-10-02T10:18:20.693Z,100944.03
2018-10-02T10:19:26.252Z,100942.20
2018-10-02T10:20:31.765Z,100936.68
2018-10-02T10:21:37.682Z,100935.78
2018-10-02T10:22:43.244Z,100934.02
2018-10-02T10:23:48.751Z,100931.48
2018-10-02T10:24:54.205Z,100932.97
2018-10-02T10:25:59.793Z,100938.03
2018-10-02T10:27:05.365Z,100931.13
2018-10-02T10:28:11.089Z,100932.73
2018-10-02T10:29:16.554Z,100936.06
2018-10-02T10:30:21.989Z,100930.61
2018-10-02T10:31:27.664Z,100923.95
2018-10-02T10:32:33.267Z,100917.91
2018-10-02T10:33:38.806Z,100930.20
2018-10-02T10:34:44.350Z,100930.61
2018-10-02T10:35:49.784Z,100933.77
2018-10-02T10:36:55.438Z,100930.37
2018-10-02T10:38:00.930Z,100934.02
2018-10-02T10:39:09.370Z,100928.28
2018-10-02T10:40:14.904Z,100919.64
2018-10-02T10:41:20.530Z,100918.59
2018-10-02T10:42:26.122Z,100923.72
2018-10-02T10:43:31.618Z,100914.95
2018-10-02T10:44:37.225Z,100906.88
2018-10-02T10:45:42.848Z,100912.06
2018-10-02T10:46:48.411Z,100915.38
2018-10-02T10:47:53.921Z,100917.02
2018-10-02T10:48:59.431Z,100917.28
2018-10-02T10:50:04.896Z,100915.54
2018-10-02T10:51:10.433Z,100912.41
2018-10-02T10:52:15.935Z,100914.59
2018-10-02T10:53:21.669Z,100913.61
2018-10-02T10:54:27.132Z,100921.77
2018-10-02T10:55:35.071Z,100920.30
2018-10-02T10:56:40.633Z,100912.18
2018-10-02T10:57:46.133Z,100918.64
2018-10-02T10:58:51.677Z,100912.81
2018-10-02T10:59:57.147Z,100915.16
2018-10-02T11:01:04.282Z,100927.03
2018-10-02T11:02:09.857Z,100919.63
2018-10-02T11:03:15.706Z,100924.65
2018-10-02T11:04:21.292Z,100915.47
2018-10-02T11:05:26.938Z,100917.16
2018-10-02T11:06:32.416Z,100909.31
2018-10-02T11:07:37.953Z,100912.78
2018-10-02T11:08:43.544Z,100909.05
2018-10-02T11:09:49.250Z,100910.14
2018-10-02T11:10:54.882Z,100914.75
2018-10-02T11:12:00.406Z,100908.33
2018-10-02T11:13:05.962Z,100907.05
2018-10-02T11:14:11.468Z,100908.40
2018-10-02T11:15:17.996Z,100910.48
2018-10-02T11:16:23.616Z,100910.97
2018-10-02T11:17:29.261Z,100914.33
2018-10-02T11:18:34.780Z,100897.93
2018-10-02T11:19:40.496Z,100902.81
2018-10-02T11:20:45.956Z,100898.38
2018-10-02T11:21:51.524Z,100900.58
2018-10-02T11:22:57.129Z,100901.37
2018-10-02T11:24:02.718Z,100892.38
2018-10-02T11:25:08.234Z,100892.80
2018-10-02T11:26:13.727Z,100882.59
2018-10-02T11:27:19.161Z,100887.91
2018-10-02T11:28:24.738Z,100890.56
2018-10-02T11:29:30.241Z,100894.64
2018-10-02T11:30:35.764Z,100894.91
2018-10-02T11:31:41.313Z,100899.67
2018-10-02T11:32:46.813Z,100904.23
2018-10-02T11:33:52.496Z,100905.91
2018-10-02T11:34:58.057Z,100908.69
2018-10-02T11:36:03.594Z,100902.68
2018-10-02T11:37:09.278Z,100903.55
2018-10-02T11:38:14.728Z,100903.97
2018-10-02T11:39:20.272Z,100905.14
2018-10-02T11:40:25.881Z,100898.37
2018-10-02T11:41:31.383Z,100900.53
2018-10-02T11:42:37.242Z,100896.25
2018-10-02T11:43:42.803Z,100901.77
2018-10-02T11:44:48.500Z,100900.15
2018-10-02T11:45:53.865Z,100895.80
2018-10-02T11:46:59.542Z,100893.27
2018-10-02T11:48:05.033Z,100891.16
2018-10-02T11:49:10.880Z,100891.20
2018-10-02T11:50:16.411Z,100888.84
2018-10-02T11:51:22.025Z,100886.80
2018-10-02T11:52:27.769Z,100894.86
2018-10-02T11:53:33.505Z,100893.03
2018-10-02T11:54:38.940Z,100894.92
2018-10-02T11:55:44.549Z,100896.55
2018-10-02T11:56:49.937Z,100893.83
2018-10-02T11:57:55.556Z,100896.27
2018-10-02T11:59:00.992Z,100895.11
2018-10-02T12:00:07.717Z,100891.75
2018-10-02T12:01:13.277Z,100896.40
2018-10-02T12:02:18.789Z,100898.02
2018-10-02T12:03:24.417Z,100899.34
2018-10-02T12:04:29.906Z,100902.36
2018-10-02T12:05:35.503Z,100898.31
2018-10-02T12:06:41.036Z,100898.05
2018-10-02T12:07:46.544Z,100897.30
2018-10-02T12:08:52.116Z,100888.69
2018-10-02T12:09:57.626Z,100891.45
2018-10-02T12:11:03.091Z,100886.31
2018-10-02T12:12:08.711Z,100885.86
2018-10-02T12:13:14.185Z,100889.45
2018-10-02T12:14:19.834Z,100893.35
2018-10-02T12:15:25.334Z,100901.02
2018-10-02T12:16:30.855Z,100903.84
2018-10-02T12:17:36.502Z,100899.91
2018-10-02T12:18:42.033Z,100895.31
2018-10-02T12:19:47.641Z,100891.41
2018-10-02T12:20:53.163Z,100892.50
2018-10-02T12:21:58.773Z,100890.54
2018-10-02T12:23:04.505Z,100890.05
2018-10-02T12:24:09.999Z,100894.32
2018-10-02T12:25:15.573Z,100891.71
2018-10-02T12:26:21.197Z,100886.86
2018-10-02T12:27:26.927Z,100888.97
2018-10-02T12:28:32.562Z,100888.56
2018-10-02T12:29:38.070Z,100893.70
2018-10-02T12:30:43.932Z,100892.30
2018-10-02T12:31:49.408Z,100895.66